Time;durP1;ratioP1;P1;durP2;ratioP2;P2;SDS_P1;SDS_P2;PMS_P1;PMS_P2;Temp;Humidity;BMP_temperature;BMP_pressure;BME280_temperature;BME280_humidity;BME280_pressure;Samples;Min_cycle;Max_cycle;Signal;HPM_P1;HPM_P2
2022/01/10 00:01:07;;;;;;;16.20;8.63;;;;;;;3.47;86.65;99313.84;5053179;28;20608;-84
2022/01/10 00:03:33;;;;;;;16.25;7.93;;;;;;;3.61;85.68;99322.56;5063151;28;20322;-83
2022/01/10 00:05:58;;;;;;;22.00;9.07;;;;;;;3.56;86.21;99311.66;5063010;28;20282;-84
2022/01/10 00:08:23;;;;;;;26.70;10.25;;;;;;;3.58;85.23;99325.75;5063307;28;20036;-84
2022/01/10 00:10:50;;;;;;;13.73;7.47;;;;;;;3.56;86.19;99325.94;5064764;28;20029;-84
2022/01/10 00:13:15;;;;;;;28.90;11.00;;;;;;;3.64;85.77;99330.19;5062737;28;20676;-84
2022/01/10 00:15:41;;;;;;;22.17;10.10;;;;;;;3.61;85.27;99333.34;5065058;28;20020;-83
2022/01/10 00:18:06;;;;;;;17.90;9.48;;;;;;;3.60;85.99;99331.72;5063630;28;20020;-84
2022/01/10 00:20:32;;;;;;;15.90;8.10;;;;;;;3.54;85.96;99335.34;5064921;28;20047;-84
2022/01/10 00:22:57;;;;;;;25.08;9.60;;;;;;;3.48;86.71;99332.47;5046911;28;20108;-84
2022/01/10 00:25:23;;;;;;;16.38;7.72;;;;;;;3.48;86.71;99342.44;5045991;28;20031;-83
2022/01/10 00:27:51;;;;;;;23.85;9.77;;;;;;;3.52;85.67;99335.53;5064977;28;20025;-84
2022/01/10 00:30:17;;;;;;;22.33;10.07;;;;;;;3.49;86.14;99344.09;5048590;28;20052;-84
2022/01/10 00:32:44;;;;;;;22.30;10.32;;;;;;;3.38;86.45;99341.13;5064045;28;20373;-84
2022/01/10 00:35:10;;;;;;;25.30;10.10;;;;;;;3.43;87.17;99345.00;5062873;28;20016;-84
2022/01/10 00:37:39;;;;;;;20.45;9.70;;;;;;;3.41;86.55;99347.94;5064556;28;20028;-84
2022/01/10 00:40:05;;;;;;;17.25;9.45;;;;;;;3.43;86.58;99347.69;5063903;28;20040;-84
2022/01/10 00:42:31;;;;;;;24.63;10.90;;;;;;;3.34;86.44;99342.63;5062732;28;20029;-84
2022/01/10 00:45:01;;;;;;;24.10;10.32;;;;;;;3.37;86.24;99349.44;5064391;28;20028;-84
2022/01/10 00:47:26;;;;;;;17.50;8.82;;;;;;;3.38;86.20;99357.28;5063358;28;20034;-84
2022/01/10 00:49:51;;;;;;;18.48;10.18;;;;;;;3.33;86.65;99362.56;5064361;28;20024;-84
2022/01/10 00:52:16;;;;;;;23.98;9.55;;;;;;;3.44;85.76;99365.53;5074318;28;20036;-83
2022/01/10 00:54:42;;;;;;;24.30;9.50;;;;;;;3.27;85.88;99375.03;5064056;28;20017;-84
2022/01/10 00:57:07;;;;;;;29.48;9.13;;;;;;;3.17;86.89;99379.31;5063291;28;20032;-84
2022/01/10 00:59:33;;;;;;;19.23;9.18;;;;;;;3.34;86.48;99374.97;5063916;28;20028;-83
2022/01/10 01:01:58;;;;;;;14.88;9.10;;;;;;;3.29;85.95;99384.78;5064401;28;20127;-84
2022/01/10 01:04:24;;;;;;;23.58;9.90;;;;;;;3.15;87.07;99379.56;5063575;28;20474;-83
2022/01/10 01:06:49;;;;;;;19.00;10.25;;;;;;;3.06;86.89;99389.78;5045902;28;20479;-84
2022/01/10 01:09:17;;;;;;;22.35;9.55;;;;;;;3.14;87.08;99389.50;5062589;28;20281;-84
2022/01/10 01:25:05;;;;;;;26.70;10.55;;;;;;;2.63;88.23;99416.50;5064667;28;20247;-84
2022/01/10 01:27:30;;;;;;;24.65;11.25;;;;;;;2.72;87.17;99422.44;5043514;28;20211;-84
2022/01/10 01:29:56;;;;;;;27.08;11.05;;;;;;;2.71;87.19;99425.34;5045550;28;20032;-84
2022/01/10 01:32:22;;;;;;;20.33;10.23;;;;;;;2.66;87.86;99443.00;5054312;28;20031;-84
2022/01/10 01:35:06;;;;;;;30.02;10.38;;;;;;;2.68;87.74;99440.88;5053251;28;20040;-83
2022/01/10 01:37:31;;;;;;;23.40;10.77;;;;;;;2.74;87.39;99449.97;5053491;28;20448;-84
2022/01/10 01:39:57;;;;;;;23.45;11.10;;;;;;;2.63;87.46;99459.59;5052400;28;20090;-84
2022/01/10 01:42:56;;;;;;;21.38;10.25;;;;;;;2.67;87.09;99460.78;5053725;28;20074;-84
2022/01/10 01:45:15;;;;;;;21.50;9.82;;;;;;;2.72;87.74;99462.00;5053900;28;20047;-84
2022/01/10 01:47:43;;;;;;;30.17;11.93;;;;;;;2.71;86.78;99466.56;5056353;28;20142;-83
2022/01/10 01:50:09;;;;;;;21.33;11.38;;;;;;;2.78;86.84;99466.50;5057900;28;20498;-84
2022/01/10 01:52:34;;;;;;;28.67;12.63;;;;;;;2.71;86.63;99471.09;5056509;28;20021;-84
2022/01/10 01:55:01;;;;;;;26.27;11.93;;;;;;;2.60;87.37;99475.34;5058114;28;20013;-84
2022/01/10 01:57:27;;;;;;;23.73;11.65;;;;;;;2.62;87.20;99479.50;5056058;28;20032;-84
2022/01/10 01:59:53;;;;;;;25.45;12.23;;;;;;;2.63;87.06;99491.06;5057064;28;20021;-83
2022/01/10 02:02:18;;;;;;;25.20;12.13;;;;;;;2.71;87.07;99487.25;5057474;28;20029;-84
2022/01/10 02:04:44;;;;;;;28.50;12.77;;;;;;;2.56;87.08;99488.44;5056200;28;20060;-84
2022/01/10 02:07:09;;;;;;;16.88;10.00;;;;;;;2.54;87.51;99487.81;5057990;28;20689;-84
2022/01/10 02:09:34;;;;;;;27.15;10.82;;;;;;;2.58;87.27;99494.44;5056322;28;20021;-84
2022/01/10 02:12:00;;;;;;;23.67;13.20;;;;;;;2.52;87.07;99506.06;5058504;28;20039;-84
2022/01/10 02:14:26;;;;;;;26.08;12.43;;;;;;;2.55;87.50;99508.31;5055209;28;20056;-84
2022/01/10 02:16:57;;;;;;;20.70;11.60;;;;;;;2.43;87.71;99509.00;5057578;28;20564;-84
2022/01/10 02:19:26;;;;;;;29.88;12.52;;;;;;;2.54;87.48;99518.25;5056177;28;20047;-84
2022/01/10 02:21:51;;;;;;;29.60;12.52;;;;;;;2.70;87.22;99517.94;5056215;28;20013;-84
2022/01/10 02:24:17;;;;;;;23.23;10.85;;;;;;;2.68;86.37;99527.03;5057181;28;20079;-85
2022/01/10 02:26:50;;;;;;;25.25;11.30;;;;;;;2.64;86.72;99525.03;5056699;28;20024;-84
2022/01/10 02:29:15;;;;;;;22.92;11.02;;;;;;;2.60;86.83;99529.19;5056561;28;20484;-84
2022/01/10 02:31:41;;;;;;;23.42;13.07;;;;;;;2.54;86.84;99536.28;5062352;28;20087;-84
2022/01/10 02:34:07;;;;;;;19.35;12.25;;;;;;;2.43;87.42;99541.31;5066783;28;20513;-84
2022/01/10 02:36:33;;;;;;;31.48;14.35;;;;;;;2.37;88.04;99546.72;5048036;28;20032;-84
2022/01/10 02:39:01;;;;;;;20.55;11.30;;;;;;;2.31;87.22;99549.25;5065911;28;20033;-84
2022/01/10 02:41:32;;;;;;;26.67;12.30;;;;;;;2.43;87.29;99545.84;5067617;28;20056;-84
2022/01/10 02:43:59;;;;;;;25.60;12.50;;;;;;;2.39;87.63;99556.22;5065090;28;20432;-84
2022/01/10 02:46:39;;;;;;;25.55;13.05;;;;;;;2.32;87.55;99566.19;5067721;28;20468;-83
2022/01/10 02:49:22;;;;;;;29.35;13.90;;;;;;;2.30;87.38;99561.03;5047298;28;20716;-84
2022/01/10 02:51:47;;;;;;;24.88;11.63;;;;;;;2.30;87.37;99579.03;5066156;28;20399;-84
2022/01/10 02:54:14;;;;;;;26.00;12.20;;;;;;;2.21;87.48;99579.31;5065354;28;20063;-84
2022/01/10 02:56:51;;;;;;;26.90;12.18;;;;;;;2.21;88.02;99587.38;5064432;28;20033;-83
2022/01/10 02:59:16;;;;;;;19.20;10.93;;;;;;;2.20;87.40;99590.25;5066716;28;20194;-84
2022/01/10 03:01:42;;;;;;;22.98;11.30;;;;;;;2.10;88.25;99591.53;5066023;28;20563;-84
2022/01/10 03:04:07;;;;;;;29.20;14.25;;;;;;;2.12;88.18;99599.38;5048626;28;20671;-84
2022/01/10 03:06:33;;;;;;;29.70;13.02;;;;;;;2.05;87.85;99603.97;5065121;28;20024;-84
2022/01/10 03:09:04;;;;;;;21.85;11.50;;;;;;;2.01;87.95;99600.91;5066279;28;20024;-83
2022/01/10 03:11:30;;;;;;;24.70;12.32;;;;;;;1.93;88.71;99601.94;5067071;28;20132;-85
2022/01/10 03:13:55;;;;;;;25.83;13.82;;;;;;;1.94;88.45;99603.59;5064374;28;21353;-83
2022/01/10 03:16:21;;;;;;;25.13;13.48;;;;;;;2.04;88.00;99602.31;5066729;28;20051;-84
2022/01/10 03:18:46;;;;;;;21.10;11.68;;;;;;;1.99;87.87;99613.72;5038040;28;20468;-84
2022/01/10 03:21:11;;;;;;;28.67;12.70;;;;;;;2.11;87.90;99613.91;5063525;28;20021;-84
2022/01/10 03:23:37;;;;;;;26.40;12.38;;;;;;;2.07;88.17;99620.72;5064686;28;20483;-84
2022/01/10 03:26:02;;;;;;;23.67;11.10;;;;;;;2.05;87.77;99620.13;5046987;28;20961;-84
2022/01/10 03:28:28;;;;;;;26.13;13.20;;;;;;;2.10;87.59;99620.28;5064597;28;20032;-84
2022/01/10 03:30:53;;;;;;;30.55;13.18;;;;;;;2.17;87.79;99626.50;5065262;28;20136;-84
2022/01/10 03:33:19;;;;;;;39.47;13.65;;;;;;;2.17;87.67;99622.97;5066478;28;20033;-84
2022/01/10 03:35:44;;;;;;;23.63;10.27;;;;;;;2.24;87.70;99634.53;5064074;28;20024;-83
2022/01/10 03:38:09;;;;;;;36.70;13.77;;;;;;;2.28;87.29;99641.13;5046924;28;20031;-84
2022/01/10 03:40:35;;;;;;;21.38;11.38;;;;;;;2.31;86.93;99639.88;5064707;28;20144;-84
2022/01/10 03:43:00;;;;;;;26.55;12.35;;;;;;;2.18;87.21;99630.81;5065055;28;20024;-84
2022/01/10 03:45:25;;;;;;;35.67;13.25;;;;;;;2.08;87.91;99642.03;5065226;28;20374;-84
2022/01/10 03:47:51;;;;;;;21.20;11.82;;;;;;;2.20;87.08;99644.88;5065069;28;20137;-84
2022/01/10 03:50:16;;;;;;;29.23;14.30;;;;;;;2.13;87.27;99641.41;5065633;28;20115;-84
2022/01/10 03:52:42;;;;;;;35.40;14.77;;;;;;;2.10;87.56;99637.28;5063987;28;20662;-84
2022/01/10 03:55:08;;;;;;;29.45;14.13;;;;;;;2.20;87.38;99646.75;5065905;28;20036;-83
2022/01/10 03:57:34;;;;;;;31.77;13.13;;;;;;;2.25;86.92;99652.34;5063868;28;20032;-85
2022/01/10 03:59:59;;;;;;;28.63;14.30;;;;;;;2.16;87.22;99649.03;5065483;28;20051;-84
2022/01/10 04:02:26;;;;;;;25.30;12.65;;;;;;;2.14;87.37;99661.88;5063652;28;20020;-84
2022/01/10 04:04:52;;;;;;;25.58;13.15;;;;;;;2.18;87.06;99671.19;5047095;28;20033;-84
2022/01/10 04:07:18;;;;;;;20.30;13.50;;;;;;;2.19;87.06;99664.78;5063327;28;20033;-84
2022/01/10 04:09:43;;;;;;;31.77;14.70;;;;;;;2.16;87.46;99669.72;5045592;28;20024;-84
2022/01/10 04:12:09;;;;;;;28.35;14.30;;;;;;;2.06;87.22;99672.84;5064816;28;20357;-84
2022/01/10 04:14:34;;;;;;;26.42;12.50;;;;;;;2.05;87.20;99673.91;5063249;28;20028;-84
2022/01/10 04:16:59;;;;;;;30.35;14.77;;;;;;;1.98;87.29;99680.13;5065231;28;20402;-84
2022/01/10 04:19:25;;;;;;;26.10;13.23;;;;;;;1.94;88.13;99683.44;5063981;28;20037;-84
2022/01/10 04:21:50;;;;;;;26.75;15.63;;;;;;;1.96;87.99;99681.38;5064696;28;20775;-84
2022/01/10 04:24:16;;;;;;;25.75;14.35;;;;;;;1.90;87.89;99693.78;5063755;28;20106;-84
2022/01/10 04:26:41;;;;;;;24.50;12.93;;;;;;;1.98;87.77;99696.25;5064718;28;20454;-84
2022/01/10 04:29:06;;;;;;;33.80;13.88;;;;;;;1.91;88.66;99706.19;5064182;28;20889;-84
2022/01/10 04:34:34;;;;;;;25.65;13.60;;;;;;;1.89;87.74;99710.97;5058583;28;20404;-84
2022/01/10 04:37:00;;;;;;;33.67;14.15;;;;;;;1.83;88.60;99715.31;5063220;28;20504;-83
2022/01/10 04:39:25;;;;;;;27.55;13.15;;;;;;;1.84;87.68;99718.81;5064670;28;20030;-83
2022/01/10 04:41:50;;;;;;;30.17;14.60;;;;;;;1.88;88.47;99727.28;5063711;28;20789;-83
2022/01/10 04:44:16;;;;;;;26.95;13.32;;;;;;;1.82;88.37;99734.34;5063362;28;20766;-84
2022/01/10 04:46:41;;;;;;;26.38;13.15;;;;;;;1.80;88.01;99747.16;5065042;28;20119;-83
2022/01/10 04:49:13;;;;;;;34.83;15.02;;;;;;;1.96;87.93;99753.97;5063799;28;20025;-84
2022/01/10 04:51:39;;;;;;;32.42;13.80;;;;;;;1.90;87.73;99757.50;5064602;28;20032;-84
2022/01/10 04:54:04;;;;;;;31.92;15.85;;;;;;;1.85;88.35;99766.19;5044814;28;20850;-84
2022/01/10 04:56:30;;;;;;;30.85;13.70;;;;;;;1.89;88.39;99774.69;5064779;28;20032;-84
2022/01/10 04:58:56;;;;;;;33.55;14.70;;;;;;;1.84;88.61;99780.66;5063159;28;20210;-84
2022/01/10 05:01:21;;;;;;;22.60;12.88;;;;;;;1.81;88.23;99781.09;5063498;28;20533;-83
2022/01/10 05:03:47;;;;;;;28.95;15.75;;;;;;;1.75;88.18;99786.25;5045378;28;20023;-84
2022/01/10 05:06:12;;;;;;;31.42;14.98;;;;;;;1.76;88.34;99797.84;5062378;28;20117;-84
2022/01/10 05:08:54;;;;;;;23.77;15.52;;;;;;;1.74;88.65;99794.53;5064474;28;20111;-84
2022/01/10 05:11:20;;;;;;;24.20;14.85;;;;;;;1.78;88.15;99797.63;5062156;28;20027;-83
2022/01/10 05:13:46;;;;;;;28.83;13.77;;;;;;;1.84;87.55;99803.00;5065057;28;20602;-84
2022/01/10 05:16:13;;;;;;;25.15;15.13;;;;;;;1.86;87.36;99806.31;5063278;28;20021;-84
2022/01/10 05:18:39;;;;;;;41.97;15.73;;;;;;;1.93;87.36;99816.25;5063460;28;20495;-85
2022/01/10 05:21:04;;;;;;;29.38;15.57;;;;;;;1.85;87.31;99812.72;5064753;28;20020;-84
2022/01/10 05:23:29;;;;;;;46.03;18.92;;;;;;;1.70;87.72;99820.16;5062838;28;20441;-84
2022/01/10 05:25:55;;;;;;;24.30;13.98;;;;;;;1.70;88.40;99828.22;5063834;28;20500;-84
2022/01/10 05:28:21;;;;;;;27.48;13.07;;;;;;;1.73;88.66;99839.38;5061557;28;20495;-83
2022/01/10 05:30:47;;;;;;;26.02;14.15;;;;;;;1.69;88.63;99842.72;5064886;28;20395;-82
2022/01/10 05:33:13;;;;;;;33.50;13.52;;;;;;;1.68;89.00;99847.25;5062497;28;20021;-84
2022/01/10 05:35:39;;;;;;;22.95;13.82;;;;;;;1.63;88.57;99853.22;5063501;28;20024;-83
2022/01/10 05:38:05;;;;;;;31.20;15.65;;;;;;;1.66;88.59;99854.69;5063744;28;20020;-84
2022/01/10 05:40:30;;;;;;;40.45;15.60;;;;;;;1.64;88.97;99862.13;5063865;28;20064;-84
2022/01/10 05:45:45;;;;;;;40.75;14.65;;;;;;;1.58;89.22;99873.69;5059249;28;20055;-84
2022/01/10 05:51:15;;;;;;;28.85;14.70;;;;;;;1.55;88.85;99890.19;5054162;28;20180;-84
2022/01/10 05:53:41;;;;;;;23.15;13.23;;;;;;;1.37;88.60;99896.97;5043523;28;20032;-84
2022/01/10 05:56:06;;;;;;;39.03;18.52;;;;;;;1.32;89.08;99900.28;5064727;28;20098;-84
2022/01/10 05:58:33;;;;;;;27.02;15.52;;;;;;;1.16;89.21;99912.16;5061955;28;20035;-84
2022/01/10 06:01:12;;;;;;;33.45;16.35;;;;;;;1.11;89.23;99911.94;5063414;28;20032;-84
2022/01/10 06:03:37;;;;;;;30.13;16.90;;;;;;;1.23;89.74;99904.97;5062167;28;20081;-85
2022/01/10 06:06:03;;;;;;;31.60;16.15;;;;;;;1.26;89.40;99918.00;5063682;28;20116;-84
2022/01/10 06:08:28;;;;;;;25.88;15.90;;;;;;;1.50;88.83;99926.59;5063024;28;20037;-84
2022/01/10 06:10:54;;;;;;;35.80;15.75;;;;;;;1.56;88.91;99929.50;5044085;28;20044;-85
2022/01/10 06:13:19;;;;;;;27.85;16.25;;;;;;;1.58;88.78;99932.81;5064479;28;20028;-84
2022/01/10 06:15:44;;;;;;;28.60;16.88;;;;;;;1.48;88.50;99939.41;5061341;28;20446;-84
2022/01/10 06:18:24;;;;;;;28.98;13.65;;;;;;;1.51;89.14;99938.16;5063500;28;20035;-84
2022/01/10 06:20:50;;;;;;;29.20;15.45;;;;;;;1.50;89.72;99948.09;5063167;28;20086;-84
2022/01/10 06:23:16;;;;;;;28.80;15.38;;;;;;;1.58;89.21;99948.94;5063844;28;20442;-83
2022/01/10 06:25:41;;;;;;;31.25;15.95;;;;;;;1.43;88.52;99952.59;5062558;28;20047;-84
2022/01/10 06:31:10;;;;;;;29.27;14.80;;;;;;;1.16;88.81;99968.56;5063749;28;20099;-83
2022/01/10 06:33:35;;;;;;;30.83;16.40;;;;;;;1.14;89.24;99970.63;5047960;28;20499;-84
2022/01/10 06:36:00;;;;;;;29.63;16.85;;;;;;;0.95;88.86;99973.00;5067395;28;20542;-84
2022/01/10 06:38:26;;;;;;;28.73;14.88;;;;;;;0.97;89.41;99970.94;5066251;28;20036;-84
2022/01/10 06:40:51;;;;;;;33.38;14.60;;;;;;;1.28;89.05;99977.72;5066137;28;20055;-84
2022/01/10 06:43:16;;;;;;;37.85;17.10;;;;;;;1.19;88.75;99984.28;5067810;28;20110;-86
2022/01/10 06:45:42;;;;;;;29.58;16.35;;;;;;;1.37;89.08;99993.69;5065129;28;20034;-84
2022/01/10 06:48:07;;;;;;;34.55;15.82;;;;;;;1.51;88.56;100003.50;5048793;28;20020;-84
2022/01/10 06:50:32;;;;;;;48.72;18.50;;;;;;;1.34;88.68;100007.53;5065495;28;20549;-84
2022/01/10 06:52:58;;;;;;;30.52;14.18;;;;;;;1.17;89.24;100013.22;5067324;28;20044;-84
2022/01/10 06:55:23;;;;;;;28.00;15.57;;;;;;;1.45;89.50;100017.72;5065891;28;20031;-84
2022/01/10 06:57:49;;;;;;;40.50;15.90;;;;;;;1.58;88.97;100019.66;5066528;28;20033;-84
2022/01/10 07:00:15;;;;;;;32.70;16.50;;;;;;;1.65;88.51;100030.44;5066460;28;20090;-85
2022/01/10 07:02:40;;;;;;;34.50;16.15;;;;;;;1.77;88.59;100035.25;5065283;28;20043;-84
2022/01/10 07:05:06;;;;;;;44.35;16.35;;;;;;;1.89;88.02;100033.66;5066833;28;20025;-83
2022/01/10 07:07:32;;;;;;;35.60;16.90;;;;;;;1.84;88.30;100049.56;5046171;28;20037;-84
2022/01/10 07:09:57;;;;;;;29.98;16.55;;;;;;;1.70;88.29;100049.50;5064597;28;20028;-82
2022/01/10 07:12:23;;;;;;;30.02;16.45;;;;;;;1.71;88.58;100067.28;5046334;28;20043;-85
2022/01/10 07:17:33;;;;;;;36.35;20.75;;;;;;;1.88;88.68;100071.50;5063908;28;20035;-85
2022/01/10 07:19:59;;;;;;;43.85;17.58;;;;;;;1.86;88.76;100079.78;5065597;28;20115;-84
2022/01/10 07:22:24;;;;;;;30.67;16.45;;;;;;;1.92;88.76;100086.19;5066779;28;20146;-84
2022/01/10 07:24:50;;;;;;;33.78;16.27;;;;;;;1.95;88.19;100093.88;5064087;28;20020;-84
2022/01/10 07:27:15;;;;;;;35.30;16.33;;;;;;;2.13;88.53;100095.19;5066263;28;20060;-84
2022/01/10 07:29:40;;;;;;;31.67;16.42;;;;;;;2.09;87.89;100109.06;5063632;28;20460;-85
2022/01/10 07:32:06;;;;;;;34.35;16.40;;;;;;;2.15;87.93;100115.50;5048024;28;20051;-84
2022/01/10 07:34:32;;;;;;;28.08;15.65;;;;;;;1.62;88.74;100119.56;5065518;28;20045;-85
2022/01/10 07:36:57;;;;;;;32.85;16.13;;;;;;;1.51;89.24;100132.50;5066184;28;20029;-84
2022/01/10 07:39:22;;;;;;;31.60;17.40;;;;;;;1.40;90.78;100139.22;5066256;28;20048;-85
2022/01/10 07:41:48;;;;;;;32.28;17.05;;;;;;;1.36;90.64;100140.63;5063614;28;20392;-84
2022/01/10 07:44:13;;;;;;;47.90;16.63;;;;;;;1.28;90.76;100144.31;5065560;28;20720;-84
2022/01/10 07:46:38;;;;;;;30.85;17.38;;;;;;;1.67;90.69;100141.28;5064254;28;20495;-84
2022/01/10 07:49:04;;;;;;;33.50;18.00;;;;;;;1.85;88.84;100148.03;5066902;28;20033;-85
2022/01/10 07:51:29;;;;;;;30.90;16.92;;;;;;;1.97;89.13;100154.50;5046836;28;20024;-84
2022/01/10 07:53:55;;;;;;;49.13;19.55;;;;;;;1.89;88.54;100152.00;5065763;28;20038;-85
2022/01/10 07:56:20;;;;;;;39.42;17.73;;;;;;;1.75;88.92;100154.59;5065506;28;20066;-85
2022/01/10 07:58:50;;;;;;;30.00;17.25;;;;;;;1.57;88.24;100165.81;5062718;28;20096;-84
2022/01/10 08:01:15;;;;;;;29.70;15.50;;;;;;;1.81;88.91;100168.28;5065737;28;20028;-84
2022/01/10 08:03:40;;;;;;;56.38;17.83;;;;;;;1.82;88.18;100178.00;5062163;28;20727;-83
2022/01/10 08:06:06;;;;;;;33.15;14.90;;;;;;;1.65;88.82;100185.53;5046439;28;20016;-83
2022/01/10 08:08:31;;;;;;;31.50;16.30;;;;;;;1.63;88.61;100193.78;5063023;28;20396;-84
2022/01/10 08:10:56;;;;;;;32.60;17.00;;;;;;;1.57;88.35;100194.56;5063233;28;20446;-82
2022/01/10 08:13:23;;;;;;;37.22;16.95;;;;;;;1.50;88.84;100206.09;5062824;28;20028;-84
2022/01/10 08:15:49;;;;;;;26.65;14.25;;;;;;;1.62;89.27;100210.94;5063251;28;20033;-85
2022/01/10 08:18:14;;;;;;;35.08;15.75;;;;;;;1.50;88.84;100211.47;5064444;28;20114;-83
2022/01/10 08:20:39;;;;;;;28.50;16.60;;;;;;;1.32;89.29;100221.84;5061268;28;21016;-82
2022/01/10 08:23:05;;;;;;;39.63;17.83;;;;;;;1.40;90.58;100229.78;5065011;28;20029;-84
2022/01/10 08:25:30;;;;;;;35.63;17.10;;;;;;;1.69;89.56;100230.63;5062529;28;20385;-85
2022/01/10 08:27:55;;;;;;;35.53;17.40;;;;;;;2.05;88.02;100234.25;5064081;28;20342;-83
2022/01/10 08:30:20;;;;;;;32.97;16.50;;;;;;;1.94;88.28;100235.59;5062682;28;20098;-84
2022/01/10 08:32:50;;;;;;;35.40;18.58;;;;;;;2.00;87.90;100238.53;5063479;28;20070;-85
2022/01/10 08:35:15;;;;;;;32.85;16.67;;;;;;;1.98;87.88;100246.78;5064335;28;20025;-84
2022/01/10 08:37:41;;;;;;;35.25;17.45;;;;;;;2.04;88.40;100248.69;5063496;28;20032;-84
2022/01/10 08:40:07;;;;;;;43.03;17.75;;;;;;;2.06;87.76;100253.88;5064678;28;20488;-84
2022/01/10 08:42:46;;;;;;;34.13;17.50;;;;;;;2.00;87.68;100257.34;5062453;28;20016;-84
2022/01/10 08:45:12;;;;;;;31.90;16.23;;;;;;;2.02;88.54;100264.19;5064676;28;20029;-83
2022/01/10 08:47:38;;;;;;;38.00;17.70;;;;;;;2.00;88.30;100268.09;5063630;28;20021;-84
2022/01/10 08:50:05;;;;;;;34.90;16.38;;;;;;;1.89;87.67;100262.25;5064140;28;20465;-84
2022/01/10 08:52:31;;;;;;;35.30;18.55;;;;;;;1.78;88.43;100271.66;5063849;28;20055;-84
2022/01/10 08:54:56;;;;;;;32.88;17.05;;;;;;;1.81;88.90;100270.47;5062402;28;20454;-85
2022/01/10 08:57:21;;;;;;;33.28;18.77;;;;;;;1.96;88.73;100268.50;5064518;28;20024;-84
2022/01/10 08:59:47;;;;;;;35.13;18.85;;;;;;;2.19;88.02;100275.50;5063034;28;20051;-84
2022/01/10 09:02:12;;;;;;;35.22;17.50;;;;;;;2.15;87.60;100276.94;5064632;28;20131;-84
2022/01/10 09:04:38;;;;;;;37.42;15.55;;;;;;;2.01;87.94;100280.53;5063963;28;20025;-84
2022/01/10 09:07:05;;;;;;;41.17;18.70;;;;;;;2.08;88.19;100284.94;5065227;28;20522;-84
2022/01/10 09:09:31;;;;;;;32.30;20.10;;;;;;;2.24;87.62;100288.34;5063663;28;20765;-84
2022/01/10 09:11:57;;;;;;;41.72;21.20;;;;;;;2.25;87.50;100291.88;5045373;28;20028;-84
2022/01/10 09:14:22;;;;;;;34.20;19.85;;;;;;;2.13;87.87;100284.38;5064845;28;20021;-84
2022/01/10 09:16:48;;;;;;;44.30;20.45;;;;;;;2.05;88.23;100292.59;5061846;28;20466;-84
2022/01/10 09:19:13;;;;;;;44.17;18.90;;;;;;;2.08;87.67;100293.00;5063956;28;20016;-84
2022/01/10 09:21:39;;;;;;;34.15;17.27;;;;;;;1.96;88.23;100295.41;5062296;28;20037;-84
2022/01/10 09:24:04;;;;;;;34.13;18.35;;;;;;;1.98;88.65;100298.72;5063871;28;20082;-85
2022/01/10 09:26:30;;;;;;;46.95;18.10;;;;;;;2.09;88.19;100299.22;5062128;28;20028;-85
2022/01/10 09:28:55;;;;;;;31.95;18.00;;;;;;;2.09;88.06;100297.38;5046466;28;20538;-84
2022/01/10 09:31:22;;;;;;;33.85;17.83;;;;;;;2.27;88.08;100306.81;5057145;28;20048;-85
2022/01/10 09:33:53;;;;;;;38.30;18.85;;;;;;;2.32;87.60;100304.34;5053228;28;20519;-84
2022/01/10 09:36:19;;;;;;;34.85;18.25;;;;;;;2.44;86.76;100299.25;5049402;28;20036;-83
2022/01/10 09:38:45;;;;;;;35.97;17.60;;;;;;;2.63;86.86;100304.13;5042915;28;20032;-84
2022/01/10 09:41:11;;;;;;;34.90;17.73;;;;;;;2.61;86.44;100309.72;5044276;28;20029;-84
2022/01/10 09:43:37;;;;;;;31.73;16.95;;;;;;;2.68;86.18;100305.19;5042809;28;20025;-84
2022/01/10 09:46:02;;;;;;;31.60;17.88;;;;;;;2.85;87.38;100307.56;5027611;28;20048;-83
2022/01/10 09:48:28;;;;;;;32.70;17.98;;;;;;;3.15;86.22;100314.53;5044408;28;20025;-85
2022/01/10 09:50:53;;;;;;;35.30;19.50;;;;;;;3.15;85.28;100311.84;5043998;28;20019;-85
2022/01/10 09:53:21;;;;;;;38.33;17.60;;;;;;;3.12;84.91;100323.84;5045042;28;20040;-85
2022/01/10 09:55:48;;;;;;;49.17;17.38;;;;;;;3.09;85.76;100335.00;5043972;28;20040;-86
2022/01/10 09:58:13;;;;;;;38.17;17.08;;;;;;;3.17;85.24;100346.66;5045347;28;20587;-85
2022/01/10 10:00:39;;;;;;;42.67;18.10;;;;;;;3.15;85.03;100352.25;5043334;28;20524;-85
2022/01/10 10:03:06;;;;;;;37.58;17.90;;;;;;;3.19;84.99;100355.38;5043727;28;20135;-84
2022/01/10 10:05:31;;;;;;;41.80;19.73;;;;;;;3.24;84.85;100360.97;5045581;28;20028;-85
2022/01/10 10:07:57;;;;;;;41.55;17.92;;;;;;;3.21;85.38;100358.72;5047772;28;20029;-85
2022/01/10 10:10:22;;;;;;;42.38;17.98;;;;;;;3.31;85.36;100359.16;5029502;28;20176;-85
2022/01/10 10:12:49;;;;;;;41.75;20.88;;;;;;;3.46;85.03;100360.84;5045325;28;20027;-85
2022/01/10 10:15:18;;;;;;;39.92;19.48;;;;;;;3.29;84.84;100366.63;5048201;28;20615;-84
2022/01/10 10:17:44;;;;;;;39.08;19.73;;;;;;;3.29;86.14;100377.41;5045792;28;20041;-85
2022/01/10 10:20:14;;;;;;;40.17;19.40;;;;;;;3.38;85.49;100373.47;5046673;28;20040;-85
2022/01/10 10:22:41;;;;;;;40.63;18.10;;;;;;;3.59;84.48;100382.47;5045444;28;20115;-86
2022/01/10 10:25:08;;;;;;;44.05;19.25;;;;;;;3.59;84.57;100381.63;5045372;28;20132;-85
2022/01/10 10:27:42;;;;;;;37.08;19.63;;;;;;;3.81;84.36;100390.41;5045545;28;20067;-85
2022/01/10 10:30:12;;;;;;;43.22;18.98;;;;;;;3.96;83.67;100386.72;5044920;28;20028;-85
2022/01/10 10:32:37;;;;;;;44.28;20.92;;;;;;;4.11;83.55;100385.69;5028060;28;20040;-85
2022/01/10 10:35:05;;;;;;;34.97;18.65;;;;;;;4.15;83.40;100389.66;5045367;28;20457;-85
2022/01/10 10:37:35;;;;;;;36.40;18.80;;;;;;;4.26;82.28;100396.28;5046089;28;20036;-85
2022/01/10 10:40:05;;;;;;;43.30;19.80;;;;;;;3.97;83.60;100391.91;5027504;28;20997;-85
2022/01/10 10:42:32;;;;;;;48.80;21.98;;;;;;;3.60;84.12;100388.72;5046678;28;20036;-85
2022/01/10 10:44:57;;;;;;;47.25;22.17;;;;;;;3.65;84.87;100391.63;5045760;28;20095;-86
2022/01/10 10:47:26;;;;;;;34.72;17.55;;;;;;;3.99;82.93;100391.69;5045535;28;20540;-85
2022/01/10 10:49:57;;;;;;;35.60;18.58;;;;;;;3.74;84.09;100409.28;5047857;28;20018;-85
2022/01/10 10:52:22;;;;;;;34.63;17.83;;;;;;;3.76;85.02;100411.78;5045858;28;20052;-85
2022/01/10 10:54:48;;;;;;;31.15;16.83;;;;;;;3.88;84.72;100421.97;5047948;28;20083;-85
2022/01/10 10:57:28;;;;;;;28.75;17.30;;;;;;;3.88;84.88;100421.97;5045260;28;20029;-85
2022/01/10 10:59:54;;;;;;;28.92;17.38;;;;;;;4.15;83.20;100427.44;5045192;28;20028;-85
2022/01/10 11:02:21;;;;;;;31.80;16.83;;;;;;;4.16;83.93;100434.47;5047727;28;20056;-85
2022/01/10 11:04:46;;;;;;;29.95;19.10;;;;;;;4.17;83.61;100445.06;5045536;28;20058;-85
2022/01/10 11:07:12;;;;;;;31.75;18.05;;;;;;;4.32;82.03;100439.50;5046879;28;20040;-84
2022/01/10 11:09:38;;;;;;;35.33;18.02;;;;;;;4.46;82.08;100447.59;5044573;28;20028;-85
2022/01/10 11:12:03;;;;;;;32.80;18.45;;;;;;;4.36;81.84;100447.16;5046664;28;20052;-85
2022/01/10 11:14:29;;;;;;;30.02;16.55;;;;;;;4.53;82.15;100451.13;5044635;28;20029;-86
2022/01/10 11:16:54;;;;;;;33.72;17.42;;;;;;;4.41;83.14;100441.97;5044697;28;20250;-85
2022/01/10 11:19:24;;;;;;;35.08;17.75;;;;;;;4.69;82.12;100449.06;5045919;28;20063;-85
2022/01/10 11:22:03;;;;;;;60.10;19.17;;;;;;;4.77;80.53;100454.25;5023416;28;20029;-85
2022/01/10 11:24:55;;;;;;;27.00;15.75;;;;;;;4.76;80.49;100452.56;5044674;28;20606;-86
2022/01/10 11:27:31;;;;;;;44.08;18.05;;;;;;;4.66;81.28;100454.84;5043684;28;20071;-86
2022/01/10 11:29:57;;;;;;;32.28;16.40;;;;;;;4.87;80.61;100466.47;5045707;28;20045;-85
2022/01/10 11:32:49;;;;;;;29.23;15.85;;;;;;;4.89;80.41;100467.94;5065921;28;20017;-85
2022/01/10 11:35:15;;;;;;;28.00;15.95;;;;;;;4.96;80.23;100461.69;5065181;28;20105;-85
2022/01/10 11:37:40;;;;;;;32.55;16.13;;;;;;;5.17;79.95;100471.44;5066177;28;20032;-85
2022/01/10 11:40:07;;;;;;;41.83;18.23;;;;;;;5.16;79.31;100475.19;5045894;28;20028;-85
2022/01/10 11:42:46;;;;;;;37.38;18.15;;;;;;;5.25;79.62;100468.50;5065697;28;20029;-84
2022/01/10 11:45:13;;;;;;;31.88;14.15;;;;;;;5.19;79.60;100468.50;5065344;28;20445;-85
2022/01/10 11:48:09;;;;;;;34.33;16.45;;;;;;;5.26;78.98;100463.94;5064417;28;20033;-84